sensor_id;sensor_type;location;lat;lon;timestamp;P1;durP1;ratioP1;P2;durP2;ratioP2
12177;SDS011;6152;48.728;9.256;2023-08-12T00:01:51;4.72;;;3.58;;
12177;SDS011;6152;48.728;9.256;2023-08-12T00:04:17;6.68;;;3.72;;
12177;SDS011;6152;48.728;9.256;2023-08-12T00:06:44;6.05;;;3.28;;
12177;SDS011;6152;48.728;9.256;2023-08-12T00:09:10;5.72;;;3.88;;
12177;SDS011;6152;48.728;9.256;2023-08-12T00:11:41;5.72;;;3.67;;
12177;SDS011;6152;48.728;9.256;2023-08-12T00:14:07;7.15;;;4.22;;
12177;SDS011;6152;48.728;9.256;2023-08-12T00:16:33;4.60;;;3.72;;
12177;SDS011;6152;48.728;9.256;2023-08-12T00:18:59;4.75;;;4.05;;
12177;SDS011;6152;48.728;9.256;2023-08-12T00:21:26;6.15;;;3.97;;
12177;SDS011;6152;48.728;9.256;2023-08-12T00:23:52;5.93;;;3.55;;
12177;SDS011;6152;48.728;9.256;2023-08-12T00:26:18;5.22;;;3.65;;
12177;SDS011;6152;48.728;9.256;2023-08-12T00:28:48;3.60;;;3.30;;
12177;SDS011;6152;48.728;9.256;2023-08-12T00:31:15;4.05;;;3.72;;
12177;SDS011;6152;48.728;9.256;2023-08-12T00:33:41;5.47;;;3.60;;
12177;SDS011;6152;48.728;9.256;2023-08-12T00:36:07;4.07;;;3.65;;
12177;SDS011;6152;48.728;9.256;2023-08-12T00:38:33;4.22;;;3.83;;
12177;SDS011;6152;48.728;9.256;2023-08-12T00:40:59;4.25;;;3.85;;
12177;SDS011;6152;48.728;9.256;2023-08-12T00:43:25;4.88;;;3.50;;
12177;SDS011;6152;48.728;9.256;2023-08-12T00:45:51;4.95;;;3.70;;
12177;SDS011;6152;48.728;9.256;2023-08-12T00:48:18;4.38;;;3.75;;
12177;SDS011;6152;48.728;9.256;2023-08-12T00:50:44;9.02;;;3.80;;
12177;SDS011;6152;48.728;9.256;2023-08-12T00:53:11;4.03;;;3.72;;
12177;SDS011;6152;48.728;9.256;2023-08-12T00:55:38;4.95;;;4.18;;
12177;SDS011;6152;48.728;9.256;2023-08-12T00:58:04;5.18;;;3.70;;
12177;SDS011;6152;48.728;9.256;2023-08-12T01:00:33;6.47;;;3.97;;
12177;SDS011;6152;48.728;9.256;2023-08-12T01:03:00;6.28;;;3.85;;
12177;SDS011;6152;48.728;9.256;2023-08-12T01:05:26;4.13;;;3.83;;
12177;SDS011;6152;48.728;9.256;2023-08-12T01:07:54;4.22;;;3.92;;
12177;SDS011;6152;48.728;9.256;2023-08-12T01:10:21;4.38;;;3.97;;
12177;SDS011;6152;48.728;9.256;2023-08-12T01:15:24;4.53;;;4.13;;
12177;SDS011;6152;48.728;9.256;2023-08-12T01:17:51;5.10;;;4.60;;
12177;SDS011;6152;48.728;9.256;2023-08-12T01:20:22;4.93;;;4.18;;
12177;SDS011;6152;48.728;9.256;2023-08-12T01:22:57;4.55;;;4.15;;
12177;SDS011;6152;48.728;9.256;2023-08-12T01:25:38;5.03;;;4.20;;
12177;SDS011;6152;48.728;9.256;2023-08-12T01:28:05;5.78;;;4.55;;
12177;SDS011;6152;48.728;9.256;2023-08-12T01:30:32;5.22;;;4.82;;
12177;SDS011;6152;48.728;9.256;2023-08-12T01:33:16;6.10;;;4.65;;
12177;SDS011;6152;48.728;9.256;2023-08-12T01:35:52;7.10;;;5.00;;
12177;SDS011;6152;48.728;9.256;2023-08-12T01:38:23;4.88;;;4.47;;
12177;SDS011;6152;48.728;9.256;2023-08-12T01:40:53;6.20;;;4.40;;
12177;SDS011;6152;48.728;9.256;2023-08-12T01:43:20;6.32;;;5.22;;
12177;SDS011;6152;48.728;9.256;2023-08-12T01:45:46;5.03;;;4.50;;
12177;SDS011;6152;48.728;9.256;2023-08-12T01:48:12;4.85;;;4.38;;
12177;SDS011;6152;48.728;9.256;2023-08-12T01:50:38;7.47;;;4.70;;
12177;SDS011;6152;48.728;9.256;2023-08-12T01:53:05;4.70;;;4.13;;
12177;SDS011;6152;48.728;9.256;2023-08-12T01:55:31;5.60;;;4.18;;
12177;SDS011;6152;48.728;9.256;2023-08-12T01:57:57;5.78;;;4.38;;
12177;SDS011;6152;48.728;9.256;2023-08-12T02:00:23;5.47;;;4.85;;
12177;SDS011;6152;48.728;9.256;2023-08-12T02:02:49;6.10;;;4.70;;
12177;SDS011;6152;48.728;9.256;2023-08-12T02:05:15;5.75;;;4.43;;
12177;SDS011;6152;48.728;9.256;2023-08-12T02:07:41;8.55;;;5.18;;
12177;SDS011;6152;48.728;9.256;2023-08-12T02:10:07;6.22;;;5.28;;
12177;SDS011;6152;48.728;9.256;2023-08-12T02:12:34;5.75;;;5.20;;
12177;SDS011;6152;48.728;9.256;2023-08-12T02:15:00;7.63;;;5.07;;
12177;SDS011;6152;48.728;9.256;2023-08-12T02:17:26;7.72;;;5.35;;
12177;SDS011;6152;48.728;9.256;2023-08-12T02:19:52;6.00;;;4.95;;
12177;SDS011;6152;48.728;9.256;2023-08-12T02:22:18;5.88;;;5.38;;
12177;SDS011;6152;48.728;9.256;2023-08-12T02:24:44;6.53;;;5.70;;
12177;SDS011;6152;48.728;9.256;2023-08-12T02:27:10;7.00;;;5.35;;
12177;SDS011;6152;48.728;9.256;2023-08-12T02:29:37;5.93;;;5.32;;
12177;SDS011;6152;48.728;9.256;2023-08-12T02:32:03;7.53;;;5.38;;
12177;SDS011;6152;48.728;9.256;2023-08-12T02:34:29;8.55;;;5.43;;
12177;SDS011;6152;48.728;9.256;2023-08-12T02:36:55;6.43;;;5.75;;
12177;SDS011;6152;48.728;9.256;2023-08-12T02:39:21;8.27;;;5.70;;
12177;SDS011;6152;48.728;9.256;2023-08-12T02:41:47;6.80;;;5.32;;
12177;SDS011;6152;48.728;9.256;2023-08-12T02:44:14;9.43;;;5.63;;
12177;SDS011;6152;48.728;9.256;2023-08-12T02:46:40;9.48;;;5.45;;
12177;SDS011;6152;48.728;9.256;2023-08-12T02:49:06;8.20;;;5.50;;
12177;SDS011;6152;48.728;9.256;2023-08-12T02:51:32;7.30;;;5.82;;
12177;SDS011;6152;48.728;9.256;2023-08-12T02:53:58;6.28;;;5.68;;
12177;SDS011;6152;48.728;9.256;2023-08-12T02:56:24;6.80;;;6.15;;
12177;SDS011;6152;48.728;9.256;2023-08-12T02:58:50;6.15;;;5.60;;
12177;SDS011;6152;48.728;9.256;2023-08-12T03:01:17;6.28;;;5.70;;
12177;SDS011;6152;48.728;9.256;2023-08-12T03:03:44;6.00;;;5.50;;
12177;SDS011;6152;48.728;9.256;2023-08-12T03:06:10;5.82;;;5.32;;
12177;SDS011;6152;48.728;9.256;2023-08-12T03:08:36;6.43;;;5.03;;
12177;SDS011;6152;48.728;9.256;2023-08-12T03:11:02;8.07;;;5.18;;
12177;SDS011;6152;48.728;9.256;2023-08-12T03:13:29;5.95;;;5.38;;
12177;SDS011;6152;48.728;9.256;2023-08-12T03:15:55;6.35;;;5.40;;
12177;SDS011;6152;48.728;9.256;2023-08-12T03:18:22;5.65;;;4.90;;
12177;SDS011;6152;48.728;9.256;2023-08-12T03:20:48;7.20;;;5.38;;
12177;SDS011;6152;48.728;9.256;2023-08-12T03:23:14;9.10;;;5.53;;
12177;SDS011;6152;48.728;9.256;2023-08-12T03:25:40;6.53;;;5.40;;
12177;SDS011;6152;48.728;9.256;2023-08-12T03:28:07;5.82;;;5.30;;
12177;SDS011;6152;48.728;9.256;2023-08-12T03:30:33;5.85;;;5.18;;
12177;SDS011;6152;48.728;9.256;2023-08-12T03:32:59;6.35;;;5.10;;
12177;SDS011;6152;48.728;9.256;2023-08-12T03:35:25;6.78;;;6.18;;
12177;SDS011;6152;48.728;9.256;2023-08-12T03:37:54;7.97;;;6.00;;
12177;SDS011;6152;48.728;9.256;2023-08-12T03:40:20;6.78;;;5.10;;
12177;SDS011;6152;48.728;9.256;2023-08-12T03:42:46;7.72;;;5.75;;
12177;SDS011;6152;48.728;9.256;2023-08-12T03:45:12;8.00;;;5.07;;
12177;SDS011;6152;48.728;9.256;2023-08-12T03:47:39;6.50;;;5.70;;
12177;SDS011;6152;48.728;9.256;2023-08-12T03:50:05;6.03;;;5.30;;
12177;SDS011;6152;48.728;9.256;2023-08-12T03:52:31;6.10;;;5.55;;
12177;SDS011;6152;48.728;9.256;2023-08-12T03:54:57;5.70;;;5.20;;
12177;SDS011;6152;48.728;9.256;2023-08-12T03:57:24;6.88;;;5.97;;
12177;SDS011;6152;48.728;9.256;2023-08-12T03:59:50;5.57;;;4.95;;
12177;SDS011;6152;48.728;9.256;2023-08-12T04:02:16;6.18;;;5.32;;
12177;SDS011;6152;48.728;9.256;2023-08-12T04:04:42;7.53;;;5.60;;
12177;SDS011;6152;48.728;9.256;2023-08-12T04:07:09;5.47;;;4.75;;
12177;SDS011;6152;48.728;9.256;2023-08-12T04:09:35;6.60;;;5.50;;
12177;SDS011;6152;48.728;9.256;2023-08-12T04:12:01;7.22;;;5.60;;
12177;SDS011;6152;48.728;9.256;2023-08-12T04:14:28;6.28;;;5.32;;
12177;SDS011;6152;48.728;9.256;2023-08-12T04:16:54;8.90;;;5.60;;
12177;SDS011;6152;48.728;9.256;2023-08-12T04:19:20;6.43;;;5.40;;
12177;SDS011;6152;48.728;9.256;2023-08-12T04:21:46;6.70;;;5.53;;
12177;SDS011;6152;48.728;9.256;2023-08-12T04:24:12;5.10;;;4.60;;
12177;SDS011;6152;48.728;9.256;2023-08-12T04:26:38;10.02;;;5.13;;
12177;SDS011;6152;48.728;9.256;2023-08-12T04:29:05;7.55;;;4.50;;
12177;SDS011;6152;48.728;9.256;2023-08-12T04:31:31;6.82;;;5.15;;
12177;SDS011;6152;48.728;9.256;2023-08-12T04:33:57;6.30;;;5.35;;
12177;SDS011;6152;48.728;9.256;2023-08-12T04:36:23;6.45;;;5.25;;
12177;SDS011;6152;48.728;9.256;2023-08-12T04:38:49;7.85;;;5.40;;
12177;SDS011;6152;48.728;9.256;2023-08-12T04:41:15;4.82;;;4.43;;
12177;SDS011;6152;48.728;9.256;2023-08-12T04:43:41;6.07;;;4.70;;
12177;SDS011;6152;48.728;9.256;2023-08-12T04:46:08;6.13;;;5.30;;
12177;SDS011;6152;48.728;9.256;2023-08-12T04:48:34;6.00;;;5.40;;
12177;SDS011;6152;48.728;9.256;2023-08-12T04:51:00;5.43;;;4.95;;
12177;SDS011;6152;48.728;9.256;2023-08-12T04:53:28;4.95;;;4.55;;
12177;SDS011;6152;48.728;9.256;2023-08-12T04:55:54;7.20;;;5.18;;
12177;SDS011;6152;48.728;9.256;2023-08-12T04:58:21;5.00;;;4.50;;
12177;SDS011;6152;48.728;9.256;2023-08-12T05:00:47;5.68;;;5.07;;
12177;SDS011;6152;48.728;9.256;2023-08-12T05:03:14;5.35;;;4.80;;
12177;SDS011;6152;48.728;9.256;2023-08-12T05:05:41;5.03;;;4.50;;
12177;SDS011;6152;48.728;9.256;2023-08-12T05:08:07;5.43;;;4.93;;
12177;SDS011;6152;48.728;9.256;2023-08-12T05:10:33;8.15;;;4.47;;
12177;SDS011;6152;48.728;9.256;2023-08-12T05:13:00;5.18;;;4.68;;
12177;SDS011;6152;48.728;9.256;2023-08-12T05:15:26;5.90;;;4.68;;
12177;SDS011;6152;48.728;9.256;2023-08-12T05:17:52;5.20;;;4.70;;
12177;SDS011;6152;48.728;9.256;2023-08-12T05:20:18;5.35;;;4.85;;
12177;SDS011;6152;48.728;9.256;2023-08-12T05:22:44;5.35;;;4.85;;
12177;SDS011;6152;48.728;9.256;2023-08-12T05:25:10;4.85;;;4.45;;
12177;SDS011;6152;48.728;9.256;2023-08-12T05:27:36;4.93;;;4.53;;
12177;SDS011;6152;48.728;9.256;2023-08-12T05:30:03;5.18;;;4.40;;
12177;SDS011;6152;48.728;9.256;2023-08-12T05:32:30;5.25;;;4.47;;
12177;SDS011;6152;48.728;9.256;2023-08-12T05:34:56;5.18;;;4.68;;
12177;SDS011;6152;48.728;9.256;2023-08-12T05:37:22;5.25;;;4.72;;
12177;SDS011;6152;48.728;9.256;2023-08-12T05:39:48;6.13;;;4.63;;
12177;SDS011;6152;48.728;9.256;2023-08-12T05:42:14;5.25;;;4.70;;
12177;SDS011;6152;48.728;9.256;2023-08-12T05:44:41;5.05;;;4.65;;
12177;SDS011;6152;48.728;9.256;2023-08-12T05:47:07;6.95;;;4.68;;
12177;SDS011;6152;48.728;9.256;2023-08-12T05:49:33;5.18;;;4.65;;
12177;SDS011;6152;48.728;9.256;2023-08-12T05:51:59;5.60;;;4.28;;
12177;SDS011;6152;48.728;9.256;2023-08-12T05:54:26;5.40;;;4.50;;
12177;SDS011;6152;48.728;9.256;2023-08-12T05:56:52;5.47;;;5.07;;
12177;SDS011;6152;48.728;9.256;2023-08-12T05:59:18;5.55;;;4.93;;
12177;SDS011;6152;48.728;9.256;2023-08-12T06:01:44;5.22;;;4.75;;
12177;SDS011;6152;48.728;9.256;2023-08-12T06:04:10;5.97;;;5.40;;
12177;SDS011;6152;48.728;9.256;2023-08-12T06:06:36;5.95;;;5.47;;
12177;SDS011;6152;48.728;9.256;2023-08-12T06:09:02;7.22;;;5.63;;
12177;SDS011;6152;48.728;9.256;2023-08-12T06:11:29;5.60;;;5.10;;
12177;SDS011;6152;48.728;9.256;2023-08-12T06:13:55;10.20;;;4.78;;
12177;SDS011;6152;48.728;9.256;2023-08-12T06:16:21;5.47;;;5.03;;
12177;SDS011;6152;48.728;9.256;2023-08-12T06:18:47;5.68;;;5.18;;
12177;SDS011;6152;48.728;9.256;2023-08-12T06:21:13;6.15;;;5.55;;
12177;SDS011;6152;48.728;9.256;2023-08-12T06:23:39;5.32;;;4.82;;
12177;SDS011;6152;48.728;9.256;2023-08-12T06:26:05;6.28;;;5.10;;
12177;SDS011;6152;48.728;9.256;2023-08-12T06:28:31;5.85;;;4.65;;
12177;SDS011;6152;48.728;9.256;2023-08-12T06:30:58;7.88;;;4.75;;
12177;SDS011;6152;48.728;9.256;2023-08-12T06:33:24;5.68;;;4.50;;
12177;SDS011;6152;48.728;9.256;2023-08-12T06:35:50;5.13;;;4.45;;
12177;SDS011;6152;48.728;9.256;2023-08-12T06:38:16;5.38;;;4.90;;
12177;SDS011;6152;48.728;9.256;2023-08-12T06:40:42;5.65;;;5.15;;
12177;SDS011;6152;48.728;9.256;2023-08-12T06:43:09;5.63;;;5.03;;
12177;SDS011;6152;48.728;9.256;2023-08-12T06:45:35;5.25;;;4.70;;
12177;SDS011;6152;48.728;9.256;2023-08-12T06:48:01;5.85;;;5.10;;
12177;SDS011;6152;48.728;9.256;2023-08-12T06:50:28;6.63;;;4.78;;
12177;SDS011;6152;48.728;9.256;2023-08-12T06:52:54;5.70;;;5.20;;
12177;SDS011;6152;48.728;9.256;2023-08-12T06:55:20;6.38;;;5.30;;
12177;SDS011;6152;48.728;9.256;2023-08-12T06:57:46;5.93;;;5.32;;
12177;SDS011;6152;48.728;9.256;2023-08-12T07:00:12;5.75;;;5.25;;
12177;SDS011;6152;48.728;9.256;2023-08-12T07:02:38;5.95;;;5.32;;
12177;SDS011;6152;48.728;9.256;2023-08-12T07:05:07;5.47;;;5.00;;
12177;SDS011;6152;48.728;9.256;2023-08-12T07:07:34;6.38;;;5.07;;
12177;SDS011;6152;48.728;9.256;2023-08-12T07:10:00;6.13;;;4.90;;
12177;SDS011;6152;48.728;9.256;2023-08-12T07:12:26;5.20;;;4.65;;
12177;SDS011;6152;48.728;9.256;2023-08-12T07:14:52;6.68;;;5.45;;
12177;SDS011;6152;48.728;9.256;2023-08-12T07:17:18;5.38;;;4.65;;
12177;SDS011;6152;48.728;9.256;2023-08-12T07:19:44;5.63;;;5.13;;
12177;SDS011;6152;48.728;9.256;2023-08-12T07:22:12;5.50;;;4.70;;
12177;SDS011;6152;48.728;9.256;2023-08-12T07:24:38;5.28;;;4.78;;
12177;SDS011;6152;48.728;9.256;2023-08-12T07:27:04;5.32;;;4.85;;
12177;SDS011;6152;48.728;9.256;2023-08-12T07:29:30;5.60;;;4.53;;
12177;SDS011;6152;48.728;9.256;2023-08-12T07:31:56;6.07;;;4.50;;
12177;SDS011;6152;48.728;9.256;2023-08-12T07:34:22;6.07;;;4.80;;
12177;SDS011;6152;48.728;9.256;2023-08-12T07:36:48;4.78;;;4.40;;
12177;SDS011;6152;48.728;9.256;2023-08-12T07:39:15;8.02;;;4.65;;
12177;SDS011;6152;48.728;9.256;2023-08-12T07:41:41;5.63;;;4.78;;
12177;SDS011;6152;48.728;9.256;2023-08-12T07:44:07;5.40;;;4.50;;
12177;SDS011;6152;48.728;9.256;2023-08-12T07:46:33;5.43;;;4.75;;
12177;SDS011;6152;48.728;9.256;2023-08-12T07:48:59;5.13;;;4.63;;
12177;SDS011;6152;48.728;9.256;2023-08-12T07:51:26;9.45;;;4.70;;
12177;SDS011;6152;48.728;9.256;2023-08-12T07:53:52;7.53;;;4.80;;
12177;SDS011;6152;48.728;9.256;2023-08-12T07:56:18;7.75;;;4.55;;
12177;SDS011;6152;48.728;9.256;2023-08-12T07:58:44;6.97;;;4.43;;
12177;SDS011;6152;48.728;9.256;2023-08-12T08:01:11;5.07;;;4.40;;
12177;SDS011;6152;48.728;9.256;2023-08-12T08:03:37;11.77;;;4.53;;
12177;SDS011;6152;48.728;9.256;2023-08-12T08:06:04;4.50;;;4.10;;
12177;SDS011;6152;48.728;9.256;2023-08-12T08:08:30;6.85;;;4.28;;
12177;SDS011;6152;48.728;9.256;2023-08-12T08:10:56;4.60;;;4.25;;
12177;SDS011;6152;48.728;9.256;2023-08-12T08:13:22;7.10;;;4.03;;
12177;SDS011;6152;48.728;9.256;2023-08-12T08:15:48;4.40;;;3.83;;
12177;SDS011;6152;48.728;9.256;2023-08-12T08:18:14;5.43;;;4.45;;
12177;SDS011;6152;48.728;9.256;2023-08-12T08:20:43;4.10;;;3.80;;
12177;SDS011;6152;48.728;9.256;2023-08-12T08:23:10;4.13;;;3.72;;
12177;SDS011;6152;48.728;9.256;2023-08-12T08:25:36;3.72;;;3.42;;
12177;SDS011;6152;48.728;9.256;2023-08-12T08:28:02;4.22;;;3.92;;
12177;SDS011;6152;48.728;9.256;2023-08-12T08:30:28;3.92;;;3.63;;
12177;SDS011;6152;48.728;9.256;2023-08-12T08:32:55;3.60;;;3.30;;
12177;SDS011;6152;48.728;9.256;2023-08-12T08:35:21;3.63;;;3.33;;
12177;SDS011;6152;48.728;9.256;2023-08-12T08:37:47;3.75;;;3.45;;
12177;SDS011;6152;48.728;9.256;2023-08-12T08:40:13;3.72;;;3.42;;
12177;SDS011;6152;48.728;9.256;2023-08-12T08:42:39;3.70;;;3.15;;
12177;SDS011;6152;48.728;9.256;2023-08-12T08:45:13;4.93;;;3.70;;
12177;SDS011;6152;48.728;9.256;2023-08-12T08:47:40;3.30;;;3.08;;
12177;SDS011;6152;48.728;9.256;2023-08-12T08:50:08;3.75;;;3.40;;
12177;SDS011;6152;48.728;9.256;2023-08-12T08:52:34;3.65;;;3.05;;
12177;SDS011;6152;48.728;9.256;2023-08-12T08:55:03;4.53;;;3.30;;
12177;SDS011;6152;48.728;9.256;2023-08-12T08:57:29;5.30;;;3.60;;
12177;SDS011;6152;48.728;9.256;2023-08-12T08:59:57;7.60;;;3.47;;
12177;SDS011;6152;48.728;9.256;2023-08-12T09:02:23;4.43;;;3.22;;
12177;SDS011;6152;48.728;9.256;2023-08-12T09:04:50;3.22;;;2.95;;
12177;SDS011;6152;48.728;9.256;2023-08-12T09:07:17;3.28;;;3.00;;
12177;SDS011;6152;48.728;9.256;2023-08-12T09:09:44;3.28;;;3.08;;
12177;SDS011;6152;48.728;9.256;2023-08-12T09:12:13;4.03;;;3.08;;
12177;SDS011;6152;48.728;9.256;2023-08-12T09:14:44;3.33;;;2.97;;
12177;SDS011;6152;48.728;9.256;2023-08-12T09:17:10;5.10;;;2.55;;
12177;SDS011;6152;48.728;9.256;2023-08-12T09:19:36;3.33;;;3.08;;
12177;SDS011;6152;48.728;9.256;2023-08-12T09:22:03;3.20;;;2.92;;
12177;SDS011;6152;48.728;9.256;2023-08-12T09:24:30;4.47;;;2.85;;
12177;SDS011;6152;48.728;9.256;2023-08-12T09:26:56;3.25;;;2.90;;
12177;SDS011;6152;48.728;9.256;2023-08-12T09:29:23;3.92;;;3.63;;
12177;SDS011;6152;48.728;9.256;2023-08-12T09:32:06;2.78;;;2.65;;
12177;SDS011;6152;48.728;9.256;2023-08-12T09:34:49;3.47;;;2.50;;
12177;SDS011;6152;48.728;9.256;2023-08-12T09:37:17;2.78;;;2.58;;
12177;SDS011;6152;48.728;9.256;2023-08-12T09:39:44;2.78;;;2.58;;
12177;SDS011;6152;48.728;9.256;2023-08-12T09:42:11;2.65;;;2.42;;
12177;SDS011;6152;48.728;9.256;2023-08-12T09:44:38;2.70;;;2.50;;
12177;SDS011;6152;48.728;9.256;2023-08-12T09:47:05;2.20;;;2.10;;
12177;SDS011;6152;48.728;9.256;2023-08-12T09:49:33;2.15;;;2.05;;
12177;SDS011;6152;48.728;9.256;2023-08-12T09:52:00;2.67;;;2.08;;
12177;SDS011;6152;48.728;9.256;2023-08-12T09:54:27;1.58;;;1.50;;
12177;SDS011;6152;48.728;9.256;2023-08-12T09:56:57;1.60;;;1.60;;
12177;SDS011;6152;48.728;9.256;2023-08-12T09:59:27;2.13;;;1.90;;
12177;SDS011;6152;48.728;9.256;2023-08-12T10:01:57;2.10;;;1.90;;
12177;SDS011;6152;48.728;9.256;2023-08-12T10:04:27;3.13;;;1.60;;
12177;SDS011;6152;48.728;9.256;2023-08-12T10:06:58;2.45;;;1.67;;
12177;SDS011;6152;48.728;9.256;2023-08-12T10:09:25;1.88;;;1.77;;
12177;SDS011;6152;48.728;9.256;2023-08-12T10:11:51;3.45;;;1.88;;
12177;SDS011;6152;48.728;9.256;2023-08-12T10:14:18;2.25;;;1.70;;
12177;SDS011;6152;48.728;9.256;2023-08-12T10:16:45;2.72;;;1.98;;
12177;SDS011;6152;48.728;9.256;2023-08-12T10:19:12;2.17;;;2.08;;
12177;SDS011;6152;48.728;9.256;2023-08-12T10:21:40;1.85;;;1.75;;
12177;SDS011;6152;48.728;9.256;2023-08-12T10:24:08;4.60;;;1.88;;
12177;SDS011;6152;48.728;9.256;2023-08-12T10:26:36;3.10;;;2.08;;
12177;SDS011;6152;48.728;9.256;2023-08-12T10:29:04;1.90;;;1.80;;
12177;SDS011;6152;48.728;9.256;2023-08-12T10:31:31;2.40;;;2.20;;
12177;SDS011;6152;48.728;9.256;2023-08-12T10:33:57;3.38;;;2.33;;
12177;SDS011;6152;48.728;9.256;2023-08-12T10:36:25;2.00;;;1.90;;
12177;SDS011;6152;48.728;9.256;2023-08-12T10:38:52;2.70;;;2.50;;
12177;SDS011;6152;48.728;9.256;2023-08-12T10:43:49;2.15;;;2.00;;
12177;SDS011;6152;48.728;9.256;2023-08-12T10:46:34;2.60;;;2.20;;
12177;SDS011;6152;48.728;9.256;2023-08-12T10:49:04;2.17;;;2.08;;
12177;SDS011;6152;48.728;9.256;2023-08-12T10:54:20;2.83;;;2.20;;
12177;SDS011;6152;48.728;9.256;2023-08-12T11:04:52;2.17;;;2.08;;
12177;SDS011;6152;48.728;9.256;2023-08-12T11:10:11;2.50;;;2.30;;
12177;SDS011;6152;48.728;9.256;2023-08-12T11:12:38;3.25;;;2.25;;
12177;SDS011;6152;48.728;9.256;2023-08-12T11:15:06;2.35;;;2.15;;
12177;SDS011;6152;48.728;9.256;2023-08-12T11:20:04;3.08;;;2.58;;
12177;SDS011;6152;48.728;9.256;2023-08-12T11:22:35;4.07;;;2.25;;
12177;SDS011;6152;48.728;9.256;2023-08-12T11:25:06;2.08;;;1.85;;
12177;SDS011;6152;48.728;9.256;2023-08-12T11:27:41;3.60;;;2.38;;
12177;SDS011;6152;48.728;9.256;2023-08-12T11:30:08;2.40;;;2.20;;
12177;SDS011;6152;48.728;9.256;2023-08-12T11:32:40;2.40;;;2.20;;
12177;SDS011;6152;48.728;9.256;2023-08-12T11:35:11;4.30;;;2.38;;
12177;SDS011;6152;48.728;9.256;2023-08-12T11:37:39;2.40;;;2.03;;
12177;SDS011;6152;48.728;9.256;2023-08-12T11:40:06;2.38;;;2.28;;
12177;SDS011;6152;48.728;9.256;2023-08-12T11:42:34;2.60;;;2.38;;
12177;SDS011;6152;48.728;9.256;2023-08-12T11:45:02;4.00;;;2.00;;
12177;SDS011;6152;48.728;9.256;2023-08-12T11:47:29;2.88;;;2.50;;
12177;SDS011;6152;48.728;9.256;2023-08-12T11:49:55;3.35;;;2.33;;
12177;SDS011;6152;48.728;9.256;2023-08-12T11:52:21;2.47;;;2.30;;
12177;SDS011;6152;48.728;9.256;2023-08-12T11:54:48;3.17;;;2.05;;
12177;SDS011;6152;48.728;9.256;2023-08-12T11:57:16;2.20;;;2.00;;
12177;SDS011;6152;48.728;9.256;2023-08-12T11:59:42;4.15;;;2.13;;
12177;SDS011;6152;48.728;9.256;2023-08-12T12:02:09;2.70;;;2.42;;
12177;SDS011;6152;48.728;9.256;2023-08-12T12:04:37;3.80;;;2.10;;
12177;SDS011;6152;48.728;9.256;2023-08-12T12:07:16;2.83;;;1.90;;
12177;SDS011;6152;48.728;9.256;2023-08-12T12:09:43;2.35;;;1.98;;
12177;SDS011;6152;48.728;9.256;2023-08-12T12:12:09;2.67;;;2.00;;
12177;SDS011;6152;48.728;9.256;2023-08-12T12:14:36;2.50;;;1.83;;
12177;SDS011;6152;48.728;9.256;2023-08-12T12:17:06;3.63;;;2.13;;
12177;SDS011;6152;48.728;9.256;2023-08-12T12:19:35;4.28;;;1.90;;
12177;SDS011;6152;48.728;9.256;2023-08-12T12:22:02;3.20;;;1.77;;
12177;SDS011;6152;48.728;9.256;2023-08-12T12:24:30;3.08;;;2.15;;
12177;SDS011;6152;48.728;9.256;2023-08-12T12:27:08;2.08;;;1.83;;
12177;SDS011;6152;48.728;9.256;2023-08-12T12:29:34;3.58;;;3.28;;
12177;SDS011;6152;48.728;9.256;2023-08-12T12:32:00;4.82;;;3.15;;
12177;SDS011;6152;48.728;9.256;2023-08-12T12:34:27;4.00;;;3.63;;
12177;SDS011;6152;48.728;9.256;2023-08-12T12:36:53;4.03;;;3.72;;
12177;SDS011;6152;48.728;9.256;2023-08-12T12:39:19;3.50;;;3.20;;
12177;SDS011;6152;48.728;9.256;2023-08-12T12:41:46;3.40;;;3.20;;
12177;SDS011;6152;48.728;9.256;2023-08-12T12:44:12;3.80;;;3.50;;
12177;SDS011;6152;48.728;9.256;2023-08-12T12:46:38;4.03;;;3.70;;
12177;SDS011;6152;48.728;9.256;2023-08-12T12:49:04;3.75;;;3.40;;
12177;SDS011;6152;48.728;9.256;2023-08-12T12:51:31;4.50;;;4.10;;
12177;SDS011;6152;48.728;9.256;2023-08-12T12:53:57;4.35;;;3.95;;
12177;SDS011;6152;48.728;9.256;2023-08-12T12:56:23;4.65;;;4.25;;
12177;SDS011;6152;48.728;9.256;2023-08-12T12:58:49;6.53;;;4.28;;
12177;SDS011;6152;48.728;9.256;2023-08-12T13:01:15;4.65;;;4.18;;
12177;SDS011;6152;48.728;9.256;2023-08-12T13:03:42;4.45;;;3.97;;
12177;SDS011;6152;48.728;9.256;2023-08-12T13:06:08;5.18;;;4.68;;
12177;SDS011;6152;48.728;9.256;2023-08-12T13:08:34;7.13;;;5.38;;
12177;SDS011;6152;48.728;9.256;2023-08-12T13:11:00;6.65;;;4.93;;
12177;SDS011;6152;48.728;9.256;2023-08-12T13:13:26;5.85;;;5.10;;
12177;SDS011;6152;48.728;9.256;2023-08-12T13:15:52;5.68;;;5.13;;
12177;SDS011;6152;48.728;9.256;2023-08-12T13:18:18;6.18;;;4.70;;
12177;SDS011;6152;48.728;9.256;2023-08-12T13:20:45;5.45;;;4.93;;
12177;SDS011;6152;48.728;9.256;2023-08-12T13:23:11;5.55;;;5.03;;
12177;SDS011;6152;48.728;9.256;2023-08-12T13:25:37;6.20;;;5.15;;
12177;SDS011;6152;48.728;9.256;2023-08-12T13:28:03;7.70;;;5.55;;
12177;SDS011;6152;48.728;9.256;2023-08-12T13:30:30;8.48;;;5.25;;
12177;SDS011;6152;48.728;9.256;2023-08-12T13:32:56;5.45;;;4.30;;
12177;SDS011;6152;48.728;9.256;2023-08-12T13:35:22;6.20;;;5.45;;
12177;SDS011;6152;48.728;9.256;2023-08-12T13:37:49;7.47;;;4.68;;
12177;SDS011;6152;48.728;9.256;2023-08-12T13:40:16;4.50;;;4.07;;
12177;SDS011;6152;48.728;9.256;2023-08-12T13:42:42;4.82;;;3.90;;
12177;SDS011;6152;48.728;9.256;2023-08-12T13:45:10;3.95;;;3.60;;
12177;SDS011;6152;48.728;9.256;2023-08-12T13:47:37;4.80;;;3.72;;
12177;SDS011;6152;48.728;9.256;2023-08-12T13:50:04;3.20;;;2.90;;
12177;SDS011;6152;48.728;9.256;2023-08-12T13:52:31;2.80;;;2.40;;
12177;SDS011;6152;48.728;9.256;2023-08-12T13:54:57;2.90;;;2.60;;
12177;SDS011;6152;48.728;9.256;2023-08-12T13:57:23;4.32;;;2.40;;
12177;SDS011;6152;48.728;9.256;2023-08-12T13:59:49;2.97;;;2.30;;
12177;SDS011;6152;48.728;9.256;2023-08-12T14:02:15;2.45;;;2.10;;
12177;SDS011;6152;48.728;9.256;2023-08-12T14:04:41;2.55;;;2.35;;
12177;SDS011;6152;48.728;9.256;2023-08-12T14:07:08;2.28;;;2.10;;
12177;SDS011;6152;48.728;9.256;2023-08-12T14:09:34;3.78;;;2.50;;
12177;SDS011;6152;48.728;9.256;2023-08-12T14:12:00;2.40;;;2.05;;
12177;SDS011;6152;48.728;9.256;2023-08-12T14:14:26;2.17;;;1.98;;
12177;SDS011;6152;48.728;9.256;2023-08-12T14:16:54;3.75;;;2.08;;
12177;SDS011;6152;48.728;9.256;2023-08-12T14:19:20;2.15;;;1.98;;
12177;SDS011;6152;48.728;9.256;2023-08-12T14:21:46;3.22;;;2.20;;
12177;SDS011;6152;48.728;9.256;2023-08-12T14:24:12;2.00;;;1.90;;
12177;SDS011;6152;48.728;9.256;2023-08-12T14:26:39;3.67;;;2.03;;
12177;SDS011;6152;48.728;9.256;2023-08-12T14:29:05;3.10;;;2.03;;
12177;SDS011;6152;48.728;9.256;2023-08-12T14:31:32;3.42;;;1.77;;
12177;SDS011;6152;48.728;9.256;2023-08-12T14:33:59;1.63;;;1.52;;
12177;SDS011;6152;48.728;9.256;2023-08-12T14:36:26;1.75;;;1.52;;
12177;SDS011;6152;48.728;9.256;2023-08-12T14:38:52;2.10;;;1.55;;
12177;SDS011;6152;48.728;9.256;2023-08-12T14:41:19;2.80;;;1.80;;
12177;SDS011;6152;48.728;9.256;2023-08-12T14:43:45;2.05;;;1.73;;
12177;SDS011;6152;48.728;9.256;2023-08-12T14:46:11;2.92;;;1.38;;
12177;SDS011;6152;48.728;9.256;2023-08-12T14:48:37;1.67;;;1.50;;
12177;SDS011;6152;48.728;9.256;2023-08-12T14:51:03;2.35;;;1.45;;
12177;SDS011;6152;48.728;9.256;2023-08-12T14:53:29;1.48;;;1.38;;
12177;SDS011;6152;48.728;9.256;2023-08-12T14:55:55;2.88;;;1.60;;
12177;SDS011;6152;48.728;9.256;2023-08-12T14:58:22;1.67;;;1.58;;
12177;SDS011;6152;48.728;9.256;2023-08-12T15:00:48;1.38;;;1.10;;
12177;SDS011;6152;48.728;9.256;2023-08-12T15:03:14;1.33;;;1.17;;
12177;SDS011;6152;48.728;9.256;2023-08-12T15:05:41;1.38;;;1.00;;
12177;SDS011;6152;48.728;9.256;2023-08-12T15:08:07;2.20;;;1.60;;
12177;SDS011;6152;48.728;9.256;2023-08-12T15:10:33;1.25;;;1.13;;
12177;SDS011;6152;48.728;9.256;2023-08-12T15:12:59;1.10;;;0.98;;
12177;SDS011;6152;48.728;9.256;2023-08-12T15:15:26;1.27;;;1.17;;
12177;SDS011;6152;48.728;9.256;2023-08-12T15:17:52;0.93;;;0.93;;
12177;SDS011;6152;48.728;9.256;2023-08-12T15:20:18;1.40;;;1.30;;